sensor_id;sensor_type;location;lat;lon;timestamp;temperature;humidity
66623;DHT22;53493;50.888;20.650;2024-03-07T00:10:03;28;74
66623;DHT22;53493;50.888;20.650;2024-03-07T00:20:19;28;74
66623;DHT22;53493;50.888;20.650;2024-03-07T00:30:03;28;74
66623;DHT22;53493;50.888;20.650;2024-03-07T00:40:16;28;74
66623;DHT22;53493;50.888;20.650;2024-03-07T00:50:11;28;74
66623;DHT22;53493;50.888;20.650;2024-03-07T01:00:23;28;74
66623;DHT22;53493;50.888;20.650;2024-03-07T01:10:07;28;74
66623;DHT22;53493;50.888;20.650;2024-03-07T01:20:10;28;74
66623;DHT22;53493;50.888;20.650;2024-03-07T01:30:16;28;74
66623;DHT22;53493;50.888;20.650;2024-03-07T01:40:18;28;74
66623;DHT22;53493;50.888;20.650;2024-03-07T01:50:14;28;74
66623;DHT22;53493;50.888;20.650;2024-03-07T02:00:16;28;74
66623;DHT22;53493;50.888;20.650;2024-03-07T02:10:10;28;74
66623;DHT22;53493;50.888;20.650;2024-03-07T02:20:18;28;74
66623;DHT22;53493;50.888;20.650;2024-03-07T02:30:22;28;74
66623;DHT22;53493;50.888;20.650;2024-03-07T02:40:19;28;74
66623;DHT22;53493;50.888;20.650;2024-03-07T02:50:10;28;74
66623;DHT22;53493;50.888;20.650;2024-03-07T03:00:37;28;74
66623;DHT22;53493;50.888;20.650;2024-03-07T03:10:16;28;76
66623;DHT22;53493;50.888;20.650;2024-03-07T03:20:39;28;76
66623;DHT22;53493;50.888;20.650;2024-03-07T03:30:20;28;76
66623;DHT22;53493;50.888;20.650;2024-03-07T03:40:13;28;76
66623;DHT22;53493;50.888;20.650;2024-03-07T03:50:17;28;76
66623;DHT22;53493;50.888;20.650;2024-03-07T04:00:03;28;76
66623;DHT22;53493;50.888;20.650;2024-03-07T04:10:18;28;76
66623;DHT22;53493;50.888;20.650;2024-03-07T04:20:11;28;76
66623;DHT22;53493;50.888;20.650;2024-03-07T04:30:13;28;76
66623;DHT22;53493;50.888;20.650;2024-03-07T04:40:17;28;76
66623;DHT22;53493;50.888;20.650;2024-03-07T04:50:11;28;76
66623;DHT22;53493;50.888;20.650;2024-03-07T05:00:15;28;76
66623;DHT22;53493;50.888;20.650;2024-03-07T05:10:11;28;77
66623;DHT22;53493;50.888;20.650;2024-03-07T05:20:16;28;77
66623;DHT22;53493;50.888;20.650;2024-03-07T05:30:17;28;77
66623;DHT22;53493;50.888;20.650;2024-03-07T05:40:16;28;77
66623;DHT22;53493;50.888;20.650;2024-03-07T05:50:11;28;77
66623;DHT22;53493;50.888;20.650;2024-03-07T06:00:16;28;77
66623;DHT22;53493;50.888;20.650;2024-03-07T06:10:12;28;78
66623;DHT22;53493;50.888;20.650;2024-03-07T06:20:25;28;78
66623;DHT22;53493;50.888;20.650;2024-03-07T06:30:17;28;78
66623;DHT22;53493;50.888;20.650;2024-03-07T06:40:02;28;78
66623;DHT22;53493;50.888;20.650;2024-03-07T06:50:02;28;78
66623;DHT22;53493;50.888;20.650;2024-03-07T07:00:03;28;78
66623;DHT22;53493;50.888;20.650;2024-03-07T07:10:11;29;77
66623;DHT22;53493;50.888;20.650;2024-03-07T07:20:25;29;77
66623;DHT22;53493;50.888;20.650;2024-03-07T07:30:19;29;77
66623;DHT22;53493;50.888;20.650;2024-03-07T07:40:28;29;77
66623;DHT22;53493;50.888;20.650;2024-03-07T07:50:26;29;77
66623;DHT22;53493;50.888;20.650;2024-03-07T08:00:29;29;77
66623;DHT22;53493;50.888;20.650;2024-03-07T08:10:12;29;75
66623;DHT22;53493;50.888;20.650;2024-03-07T08:20:22;29;75
66623;DHT22;53493;50.888;20.650;2024-03-07T08:30:24;29;75
66623;DHT22;53493;50.888;20.650;2024-03-07T08:40:26;29;75
66623;DHT22;53493;50.888;20.650;2024-03-07T08:50:19;29;75
66623;DHT22;53493;50.888;20.650;2024-03-07T09:00:27;29;75
66623;DHT22;53493;50.888;20.650;2024-03-07T09:10:13;29;76
66623;DHT22;53493;50.888;20.650;2024-03-07T09:20:02;29;76
66623;DHT22;53493;50.888;20.650;2024-03-07T09:30:02;29;76
66623;DHT22;53493;50.888;20.650;2024-03-07T09:40:07;29;76
66623;DHT22;53493;50.888;20.650;2024-03-07T09:50:15;29;76
66623;DHT22;53493;50.888;20.650;2024-03-07T10:00:25;29;76
66623;DHT22;53493;50.888;20.650;2024-03-07T10:10:18;28;79
66623;DHT22;53493;50.888;20.650;2024-03-07T10:20:12;28;79
66623;DHT22;53493;50.888;20.650;2024-03-07T10:30:03;28;79
66623;DHT22;53493;50.888;20.650;2024-03-07T11:00:38;28;79
66623;DHT22;53493;50.888;20.650;2024-03-07T11:10:22;28;76
66623;DHT22;53493;50.888;20.650;2024-03-07T11:20:44;28;76
66623;DHT22;53493;50.888;20.650;2024-03-07T11:30:17;28;76
66623;DHT22;53493;50.888;20.650;2024-03-07T11:50:03;28;76
66623;DHT22;53493;50.888;20.650;2024-03-07T12:00:03;28;76
66623;DHT22;53493;50.888;20.650;2024-03-07T12:10:12;29;76
66623;DHT22;53493;50.888;20.650;2024-03-07T12:20:42;29;76
66623;DHT22;53493;50.888;20.650;2024-03-07T12:30:35;29;76
66623;DHT22;53493;50.888;20.650;2024-03-07T12:40:26;29;76
66623;DHT22;53493;50.888;20.650;2024-03-07T12:50:09;29;76
66623;DHT22;53493;50.888;20.650;2024-03-07T13:00:20;29;76
66623;DHT22;53493;50.888;20.650;2024-03-07T13:10:11;29;75
66623;DHT22;53493;50.888;20.650;2024-03-07T13:20:27;29;75
66623;DHT22;53493;50.888;20.650;2024-03-07T13:30:31;29;75
66623;DHT22;53493;50.888;20.650;2024-03-07T13:40:31;29;75
66623;DHT22;53493;50.888;20.650;2024-03-07T13:50:03;29;75
66623;DHT22;53493;50.888;20.650;2024-03-07T14:00:18;29;75
66623;DHT22;53493;50.888;20.650;2024-03-07T14:30:55;29;75
66623;DHT22;53493;50.888;20.650;2024-03-07T14:40:25;29;75
66623;DHT22;53493;50.888;20.650;2024-03-07T14:50:13;29;75
66623;DHT22;53493;50.888;20.650;2024-03-07T15:00:03;29;75
66623;DHT22;53493;50.888;20.650;2024-03-07T15:10:50;28;77
66623;DHT22;53493;50.888;20.650;2024-03-07T15:20:09;28;77
66623;DHT22;53493;50.888;20.650;2024-03-07T15:30:11;28;77
66623;DHT22;53493;50.888;20.650;2024-03-07T15:40:24;28;77
66623;DHT22;53493;50.888;20.650;2024-03-07T15:50:20;28;77
66623;DHT22;53493;50.888;20.650;2024-03-07T16:00:04;28;77
66623;DHT22;53493;50.888;20.650;2024-03-07T16:10:07;29;72
66623;DHT22;53493;50.888;20.650;2024-03-07T16:20:21;29;72
66623;DHT22;53493;50.888;20.650;2024-03-07T16:30:04;29;72
66623;DHT22;53493;50.888;20.650;2024-03-07T16:40:22;29;72
66623;DHT22;53493;50.888;20.650;2024-03-07T16:50:09;29;72
66623;DHT22;53493;50.888;20.650;2024-03-07T17:00:12;29;72
66623;DHT22;53493;50.888;20.650;2024-03-07T17:20:15;29;72
66623;DHT22;53493;50.888;20.650;2024-03-07T17:30:03;29;72
66623;DHT22;53493;50.888;20.650;2024-03-07T17:50:24;29;72
66623;DHT22;53493;50.888;20.650;2024-03-07T18:00:33;29;72
66623;DHT22;53493;50.888;20.650;2024-03-07T18:20:03;29;72
66623;DHT22;53493;50.888;20.650;2024-03-07T18:30:11;29;72
66623;DHT22;53493;50.888;20.650;2024-03-07T18:50:22;29;73
66623;DHT22;53493;50.888;20.650;2024-03-07T19:00:30;29;73
66623;DHT22;53493;50.888;20.650;2024-03-07T19:20:24;29;76
66623;DHT22;53493;50.888;20.650;2024-03-07T19:30:06;29;76
66623;DHT22;53493;50.888;20.650;2024-03-07T19:40:17;29;76
66623;DHT22;53493;50.888;20.650;2024-03-07T19:50:20;29;76
66623;DHT22;53493;50.888;20.650;2024-03-07T20:00:19;29;76
66623;DHT22;53493;50.888;20.650;2024-03-07T20:10:17;29;76
66623;DHT22;53493;50.888;20.650;2024-03-07T20:20:30;29;77
66623;DHT22;53493;50.888;20.650;2024-03-07T20:30:23;29;77
66623;DHT22;53493;50.888;20.650;2024-03-07T20:40:04;29;77
66623;DHT22;53493;50.888;20.650;2024-03-07T20:50:13;29;77
66623;DHT22;53493;50.888;20.650;2024-03-07T21:00:24;29;77
66623;DHT22;53493;50.888;20.650;2024-03-07T21:10:12;29;77
66623;DHT22;53493;50.888;20.650;2024-03-07T21:20:23;29;76
66623;DHT22;53493;50.888;20.650;2024-03-07T21:30:14;29;76
66623;DHT22;53493;50.888;20.650;2024-03-07T21:40:19;29;76
66623;DHT22;53493;50.888;20.650;2024-03-07T21:50:01;29;76
66623;DHT22;53493;50.888;20.650;2024-03-07T22:00:08;29;76
66623;DHT22;53493;50.888;20.650;2024-03-07T22:10:06;29;76
66623;DHT22;53493;50.888;20.650;2024-03-07T22:20:23;29;76
66623;DHT22;53493;50.888;20.650;2024-03-07T22:30:02;29;76
66623;DHT22;53493;50.888;20.650;2024-03-07T22:40:02;29;76
66623;DHT22;53493;50.888;20.650;2024-03-07T22:50:02;29;76
66623;DHT22;53493;50.888;20.650;2024-03-07T23:00:32;29;76
66623;DHT22;53493;50.888;20.650;2024-03-07T23:10:06;29;77
66623;DHT22;53493;50.888;20.650;2024-03-07T23:20:05;29;77
66623;DHT22;53493;50.888;20.650;2024-03-07T23:30:13;29;77
66623;DHT22;53493;50.888;20.650;2024-03-07T23:40:14;29;77
66623;DHT22;53493;50.888;20.650;2024-03-07T23:50:08;29;77
